sensor_id;sensor_type;location;lat;lon;timestamp;pressure;altitude;pressure_sealevel;temperature;humidity
45247;BME280;31529;51.158;7.354;2022-10-10T00:00:09;97947.47;;;13.23;54.67
45247;BME280;31529;51.158;7.354;2022-10-10T00:00:40;97942.09;;;13.23;55.24
45247;BME280;31529;51.158;7.354;2022-10-10T00:01:14;97949.38;;;13.23;54.83
45247;BME280;31529;51.158;7.354;2022-10-10T00:01:45;97950.44;;;13.22;55.13
45247;BME280;31529;51.158;7.354;2022-10-10T00:02:16;97940.53;;;13.22;54.86
45247;BME280;31529;51.158;7.354;2022-10-10T00:02:47;97940.53;;;13.22;55.03
45247;BME280;31529;51.158;7.354;2022-10-10T00:03:18;97856.50;;;12.68;55.43
45247;BME280;31529;51.158;7.354;2022-10-10T00:03:49;97946.19;;;13.21;55.44
45247;BME280;31529;51.158;7.354;2022-10-10T00:04:20;97950.75;;;13.20;55.04
45247;BME280;31529;51.158;7.354;2022-10-10T00:04:51;97937.03;;;13.22;55.14
45247;BME280;31529;51.158;7.354;2022-10-10T00:05:23;97935.19;;;13.22;55.32
45247;BME280;31529;51.158;7.354;2022-10-10T00:05:54;97939.44;;;13.23;55.01
45247;BME280;31529;51.158;7.354;2022-10-10T00:06:26;97935.47;;;13.21;55.51
45247;BME280;31529;51.158;7.354;2022-10-10T00:06:57;97935.78;;;13.19;55.04
45247;BME280;31529;51.158;7.354;2022-10-10T00:07:28;97938.44;;;13.19;55.12
45247;BME280;31529;51.158;7.354;2022-10-10T00:07:59;97934.97;;;13.19;55.47
45247;BME280;31529;51.158;7.354;2022-10-10T00:08:31;97934.16;;;13.18;55.78
45247;BME280;31529;51.158;7.354;2022-10-10T00:09:03;97930.72;;;13.18;55.43
45247;BME280;31529;51.158;7.354;2022-10-10T00:09:35;97932.59;;;13.17;55.38
45247;BME280;31529;51.158;7.354;2022-10-10T00:10:06;97933.69;;;13.16;55.54
45247;BME280;31529;51.158;7.354;2022-10-10T00:10:38;97927.53;;;13.16;55.31
45247;BME280;31529;51.158;7.354;2022-10-10T00:11:09;97932.09;;;13.15;55.26
45247;BME280;31529;51.158;7.354;2022-10-10T00:11:40;97933.19;;;13.14;55.78
45247;BME280;31529;51.158;7.354;2022-10-10T00:12:11;97928.94;;;13.13;55.80
45247;BME280;31529;51.158;7.354;2022-10-10T00:12:43;97943.13;;;13.14;55.62
45247;BME280;31529;51.158;7.354;2022-10-10T00:13:14;97930.31;;;13.11;55.97
45247;BME280;31529;51.158;7.354;2022-10-10T00:13:45;97941.34;;;13.09;56.18
45247;BME280;31529;51.158;7.354;2022-10-10T00:14:16;97936.00;;;13.09;56.15
45247;BME280;31529;51.158;7.354;2022-10-10T00:14:48;97933.31;;;13.09;56.09
45247;BME280;31529;51.158;7.354;2022-10-10T00:15:19;97937.06;;;13.08;55.88
45247;BME280;31529;51.158;7.354;2022-10-10T00:15:50;97932.78;;;13.07;56.26
45247;BME280;31529;51.158;7.354;2022-10-10T00:16:21;97940.84;;;13.07;56.06
45247;BME280;31529;51.158;7.354;2022-10-10T00:16:52;97934.69;;;13.06;56.09
45247;BME280;31529;51.158;7.354;2022-10-10T00:17:23;97930.13;;;13.07;56.38
45247;BME280;31529;51.158;7.354;2022-10-10T00:17:54;97935.81;;;13.05;56.21
45247;BME280;31529;51.158;7.354;2022-10-10T00:18:25;97934.97;;;13.05;56.00
45247;BME280;31529;51.158;7.354;2022-10-10T00:18:56;97934.97;;;13.05;56.06
45247;BME280;31529;51.158;7.354;2022-10-10T00:19:27;97936.88;;;13.04;56.04
45247;BME280;31529;51.158;7.354;2022-10-10T00:19:58;97934.50;;;13.03;56.27
45247;BME280;31529;51.158;7.354;2022-10-10T00:20:29;97940.34;;;13.05;56.23
45247;BME280;31529;51.158;7.354;2022-10-10T00:21:00;97932.63;;;13.03;56.35
45247;BME280;31529;51.158;7.354;2022-10-10T00:21:31;97936.38;;;13.02;56.43
45247;BME280;31529;51.158;7.354;2022-10-10T00:22:02;97932.94;;;13.02;56.86
45247;BME280;31529;51.158;7.354;2022-10-10T00:22:34;97936.38;;;13.02;56.86
45247;BME280;31529;51.158;7.354;2022-10-10T00:23:05;97938.28;;;13.02;56.53
45247;BME280;31529;51.158;7.354;2022-10-10T00:23:36;97935.59;;;13.02;56.53
45247;BME280;31529;51.158;7.354;2022-10-10T00:24:07;97935.59;;;13.02;57.03
45247;BME280;31529;51.158;7.354;2022-10-10T00:24:38;97940.16;;;13.01;56.95
45247;BME280;31529;51.158;7.354;2022-10-10T00:25:09;97934.00;;;13.01;56.64
45247;BME280;31529;51.158;7.354;2022-10-10T00:25:41;97931.31;;;13.01;56.69
45247;BME280;31529;51.158;7.354;2022-10-10T00:26:12;97934.00;;;13.01;56.61
45247;BME280;31529;51.158;7.354;2022-10-10T00:26:43;97932.44;;;13.00;56.80
45247;BME280;31529;51.158;7.354;2022-10-10T00:27:14;97935.13;;;13.00;57.04
45247;BME280;31529;51.158;7.354;2022-10-10T00:27:45;97929.25;;;12.98;56.33
45247;BME280;31529;51.158;7.354;2022-10-10T00:28:16;97934.63;;;12.98;56.71
45247;BME280;31529;51.158;7.354;2022-10-10T00:28:47;97938.28;;;13.02;56.89
45247;BME280;31529;51.158;7.354;2022-10-10T00:29:18;97934.28;;;12.99;56.55
45247;BME280;31529;51.158;7.354;2022-10-10T00:29:49;97933.50;;;12.99;57.07
45247;BME280;31529;51.158;7.354;2022-10-10T00:30:20;97937.31;;;12.98;56.51
45247;BME280;31529;51.158;7.354;2022-10-10T00:30:52;97936.47;;;12.97;57.00
45247;BME280;31529;51.158;7.354;2022-10-10T00:31:23;97930.34;;;12.97;56.96
45247;BME280;31529;51.158;7.354;2022-10-10T00:31:54;97942.47;;;12.94;57.64
45247;BME280;31529;51.158;7.354;2022-10-10T00:32:25;97932.81;;;12.93;57.49
45247;BME280;31529;51.158;7.354;2022-10-10T00:32:57;97932.81;;;12.93;57.56
45247;BME280;31529;51.158;7.354;2022-10-10T00:33:28;97940.06;;;12.93;57.25
45247;BME280;31529;51.158;7.354;2022-10-10T00:33:59;97935.78;;;12.92;57.64
45247;BME280;31529;51.158;7.354;2022-10-10T00:34:30;97935.78;;;12.92;57.20
45247;BME280;31529;51.158;7.354;2022-10-10T00:35:02;97932.31;;;12.91;57.60
45247;BME280;31529;51.158;7.354;2022-10-10T00:35:34;97930.94;;;12.94;57.21
45247;BME280;31529;51.158;7.354;2022-10-10T00:36:06;97936.91;;;12.91;57.55
45247;BME280;31529;51.158;7.354;2022-10-10T00:36:37;97937.19;;;12.89;57.76
45247;BME280;31529;51.158;7.354;2022-10-10T00:37:08;97932.13;;;12.87;57.46
45247;BME280;31529;51.158;7.354;2022-10-10T00:37:39;97933.25;;;12.86;57.76
45247;BME280;31529;51.158;7.354;2022-10-10T00:38:10;97933.25;;;12.86;57.55
45247;BME280;31529;51.158;7.354;2022-10-10T00:38:43;97933.25;;;12.86;57.55
45247;BME280;31529;51.158;7.354;2022-10-10T00:39:14;97930.06;;;12.84;57.24
45247;BME280;31529;51.158;7.354;2022-10-10T00:39:45;97938.09;;;12.84;57.80
45247;BME280;31529;51.158;7.354;2022-10-10T00:40:16;97931.16;;;12.83;57.85
45247;BME280;31529;51.158;7.354;2022-10-10T00:40:48;97930.06;;;12.84;57.81
45247;BME280;31529;51.158;7.354;2022-10-10T00:41:21;97933.81;;;12.83;57.88
45247;BME280;31529;51.158;7.354;2022-10-10T00:41:53;97933.03;;;12.83;57.88
45247;BME280;31529;51.158;7.354;2022-10-10T00:42:24;97934.91;;;12.82;58.16
45247;BME280;31529;51.158;7.354;2022-10-10T00:42:55;97936.00;;;12.81;57.64
45247;BME280;31529;51.158;7.354;2022-10-10T00:43:26;97931.44;;;12.82;58.24
45247;BME280;31529;51.158;7.354;2022-10-10T00:44:00;97931.72;;;12.80;57.93
45247;BME280;31529;51.158;7.354;2022-10-10T00:44:42;97932.84;;;12.79;58.03
45247;BME280;31529;51.158;7.354;2022-10-10T00:45:31;97937.41;;;12.79;58.12
45247;BME280;31529;51.158;7.354;2022-10-10T00:46:08;97939.28;;;12.78;57.89
45247;BME280;31529;51.158;7.354;2022-10-10T00:46:40;97929.38;;;12.79;58.18
45247;BME280;31529;51.158;7.354;2022-10-10T00:47:12;97927.97;;;12.81;58.13
45247;BME280;31529;51.158;7.354;2022-10-10T00:47:43;97933.63;;;12.80;58.47
45247;BME280;31529;51.158;7.354;2022-10-10T00:48:15;97930.66;;;12.81;58.59
45247;BME280;31529;51.158;7.354;2022-10-10T00:48:49;97930.16;;;12.79;58.14
45247;BME280;31529;51.158;7.354;2022-10-10T00:49:21;97927.47;;;12.79;58.59
45247;BME280;31529;51.158;7.354;2022-10-10T00:49:56;97850.94;;;12.23;58.52
45247;BME280;31529;51.158;7.354;2022-10-10T00:50:27;97928.88;;;12.77;58.45
45247;BME280;31529;51.158;7.354;2022-10-10T00:51:00;97936.91;;;12.77;58.50
45247;BME280;31529;51.158;7.354;2022-10-10T00:51:34;97927.28;;;12.76;58.46
45247;BME280;31529;51.158;7.354;2022-10-10T00:52:07;97930.25;;;12.74;58.31
45247;BME280;31529;51.158;7.354;2022-10-10T00:52:40;97922.22;;;12.74;58.31
45247;BME280;31529;51.158;7.354;2022-10-10T00:53:12;97924.13;;;12.74;58.21
45247;BME280;31529;51.158;7.354;2022-10-10T00:54:32;97930.25;;;12.74;58.35
45247;BME280;31529;51.158;7.354;2022-10-10T00:55:03;97927.09;;;12.72;58.70
45247;BME280;31529;51.158;7.354;2022-10-10T00:55:35;97933.53;;;12.71;58.80
45247;BME280;31529;51.158;7.354;2022-10-10T00:56:07;97936.22;;;12.71;58.37
45247;BME280;31529;51.158;7.354;2022-10-10T00:56:41;97928.47;;;12.69;58.36
45247;BME280;31529;51.158;7.354;2022-10-10T00:57:15;97938.38;;;12.69;58.76
45247;BME280;31529;51.158;7.354;2022-10-10T00:57:46;97928.78;;;12.68;58.45
45247;BME280;31529;51.158;7.354;2022-10-10T00:58:17;97928.78;;;12.68;59.16
45247;BME280;31529;51.158;7.354;2022-10-10T00:58:51;97930.34;;;12.69;58.93
45247;BME280;31529;51.158;7.354;2022-10-10T00:59:24;97939.19;;;12.69;59.09
45247;BME280;31529;51.158;7.354;2022-10-10T00:59:56;97934.63;;;12.70;59.11
45247;BME280;31529;51.158;7.354;2022-10-10T01:00:28;97930.34;;;12.69;58.79
45247;BME280;31529;51.158;7.354;2022-10-10T01:01:00;97931.44;;;12.68;59.06
45247;BME280;31529;51.158;7.354;2022-10-10T01:01:31;97936.00;;;12.67;59.27
45247;BME280;31529;51.158;7.354;2022-10-10T01:02:02;97930.97;;;12.66;59.03
45247;BME280;31529;51.158;7.354;2022-10-10T01:02:33;97931.75;;;12.66;59.24
45247;BME280;31529;51.158;7.354;2022-10-10T01:03:05;97930.16;;;12.65;59.24
45247;BME280;31529;51.158;7.354;2022-10-10T01:03:36;97929.34;;;12.65;59.33
45247;BME280;31529;51.158;7.354;2022-10-10T01:04:41;97927.16;;;12.67;59.27
45247;BME280;31529;51.158;7.354;2022-10-10T01:05:11;97923.22;;;12.64;59.35
45247;BME280;31529;51.158;7.354;2022-10-10T01:05:42;97928.28;;;12.66;59.72
45247;BME280;31529;51.158;7.354;2022-10-10T01:06:15;97931.25;;;12.64;59.60
45247;BME280;31529;51.158;7.354;2022-10-10T01:06:46;97924.28;;;12.63;59.40
45247;BME280;31529;51.158;7.354;2022-10-10T01:07:19;97922.72;;;12.62;59.88
45247;BME280;31529;51.158;7.354;2022-10-10T01:07:55;97918.16;;;12.63;59.63
45247;BME280;31529;51.158;7.354;2022-10-10T01:08:26;97921.94;;;12.62;60.07
45247;BME280;31529;51.158;7.354;2022-10-10T01:08:58;97924.63;;;12.62;59.82
45247;BME280;31529;51.158;7.354;2022-10-10T01:09:29;97925.69;;;12.61;59.93
45247;BME280;31529;51.158;7.354;2022-10-10T01:10:04;97920.34;;;12.61;59.89
45247;BME280;31529;51.158;7.354;2022-10-10T01:11:44;97917.38;;;12.62;60.00
45247;BME280;31529;51.158;7.354;2022-10-10T01:12:31;97924.28;;;12.63;59.54
45247;BME280;31529;51.158;7.354;2022-10-10T01:13:37;97917.38;;;12.62;59.69
45247;BME280;31529;51.158;7.354;2022-10-10T01:16:34;97917.38;;;12.62;59.96
45247;BME280;31529;51.158;7.354;2022-10-10T01:17:27;97912.31;;;12.61;60.02
45247;BME280;31529;51.158;7.354;2022-10-10T01:20:26;97919.34;;;12.57;60.18
45247;BME280;31529;51.158;7.354;2022-10-10T01:22:26;97917.25;;;12.54;59.82
45247;BME280;31529;51.158;7.354;2022-10-10T01:23:16;97913.78;;;12.53;60.32
45247;BME280;31529;51.158;7.354;2022-10-10T01:26:09;97909.03;;;12.50;60.80
45247;BME280;31529;51.158;7.354;2022-10-10T01:27:46;97922.94;;;12.52;60.36
45247;BME280;31529;51.158;7.354;2022-10-10T01:29:30;97915.97;;;12.51;60.38
45247;BME280;31529;51.158;7.354;2022-10-10T01:30:14;97915.19;;;12.50;60.96
45247;BME280;31529;51.158;7.354;2022-10-10T01:30:48;97916.75;;;12.52;61.08
45247;BME280;31529;51.158;7.354;2022-10-10T01:31:20;97915.19;;;12.50;61.01
45247;BME280;31529;51.158;7.354;2022-10-10T01:31:54;97915.19;;;12.50;60.87
45247;BME280;31529;51.158;7.354;2022-10-10T01:33:27;97912.81;;;12.49;60.69
45247;BME280;31529;51.158;7.354;2022-10-10T01:34:15;97912.03;;;12.48;60.90
45247;BME280;31529;51.158;7.354;2022-10-10T01:35:02;97913.88;;;12.48;61.31
45247;BME280;31529;51.158;7.354;2022-10-10T01:35:59;97909.34;;;12.48;61.46
45247;BME280;31529;51.158;7.354;2022-10-10T01:37:17;97915.78;;;12.47;61.50
45247;BME280;31529;51.158;7.354;2022-10-10T01:38:18;97909.63;;;12.47;61.22
45247;BME280;31529;51.158;7.354;2022-10-10T01:39:02;97904.28;;;12.47;60.90
45247;BME280;31529;51.158;7.354;2022-10-10T01:39:53;97909.63;;;12.47;60.99
45247;BME280;31529;51.158;7.354;2022-10-10T01:40:32;97817.41;;;11.84;61.46
45247;BME280;31529;51.158;7.354;2022-10-10T01:41:23;97912.31;;;12.47;61.72
45247;BME280;31529;51.158;7.354;2022-10-10T01:42:02;97905.06;;;12.47;61.94
45247;BME280;31529;51.158;7.354;2022-10-10T01:42:45;97901.91;;;12.45;61.76
45247;BME280;31529;51.158;7.354;2022-10-10T01:43:20;97905.06;;;12.47;61.73
45247;BME280;31529;51.158;7.354;2022-10-10T01:43:54;97907.25;;;12.45;61.76
45247;BME280;31529;51.158;7.354;2022-10-10T01:44:26;97904.56;;;12.45;61.87
45247;BME280;31529;51.158;7.354;2022-10-10T01:44:57;97899.72;;;12.47;61.58
45247;BME280;31529;51.158;7.354;2022-10-10T01:45:28;97901.91;;;12.45;61.88
45247;BME280;31529;51.158;7.354;2022-10-10T01:46:45;97899.22;;;12.45;61.49
45247;BME280;31529;51.158;7.354;2022-10-10T01:47:16;97903.50;;;12.46;61.75
45247;BME280;31529;51.158;7.354;2022-10-10T01:47:47;97903.50;;;12.46;61.73
45247;BME280;31529;51.158;7.354;2022-10-10T01:48:23;97896.53;;;12.45;61.60
45247;BME280;31529;51.158;7.354;2022-10-10T01:48:58;97903.50;;;12.46;61.23
45247;BME280;31529;51.158;7.354;2022-10-10T01:49:31;97903.50;;;12.46;61.46
45247;BME280;31529;51.158;7.354;2022-10-10T01:50:07;97891.19;;;12.45;61.47
45247;BME280;31529;51.158;7.354;2022-10-10T01:50:49;97900.81;;;12.46;61.57
45247;BME280;31529;51.158;7.354;2022-10-10T01:51:50;97901.09;;;12.45;62.06
45247;BME280;31529;51.158;7.354;2022-10-10T01:52:33;97893.38;;;12.43;62.21
45247;BME280;31529;51.158;7.354;2022-10-10T01:53:13;97898.72;;;12.43;62.06
45247;BME280;31529;51.158;7.354;2022-10-10T01:53:56;97894.44;;;12.42;61.53
45247;BME280;31529;51.158;7.354;2022-10-10T01:55:02;97899.81;;;12.42;62.22
45247;BME280;31529;51.158;7.354;2022-10-10T01:55:45;97892.09;;;12.41;62.33
45247;BME280;31529;51.158;7.354;2022-10-10T02:00:36;97893.75;;;12.37;62.22
45247;BME280;31529;51.158;7.354;2022-10-10T02:01:20;97892.97;;;12.36;62.31
45247;BME280;31529;51.158;7.354;2022-10-10T02:02:10;97891.41;;;12.35;62.72
45247;BME280;31529;51.158;7.354;2022-10-10T02:02:56;97891.41;;;12.35;62.76
45247;BME280;31529;51.158;7.354;2022-10-10T02:03:37;97888.72;;;12.35;62.67
45247;BME280;31529;51.158;7.354;2022-10-10T02:04:59;97889.78;;;12.34;62.77
45247;BME280;31529;51.158;7.354;2022-10-10T02:05:54;97882.06;;;12.33;62.76
45247;BME280;31529;51.158;7.354;2022-10-10T02:06:33;97881.28;;;12.32;63.16
45247;BME280;31529;51.158;7.354;2022-10-10T02:07:25;97880.50;;;12.32;63.32
45247;BME280;31529;51.158;7.354;2022-10-10T02:09:02;97876.50;;;12.29;62.71
45247;BME280;31529;51.158;7.354;2022-10-10T02:09:37;97789.56;;;11.71;62.66
45247;BME280;31529;51.158;7.354;2022-10-10T02:10:11;97874.94;;;12.28;62.91
45247;BME280;31529;51.158;7.354;2022-10-10T02:10:52;97874.94;;;12.28;63.03
45247;BME280;31529;51.158;7.354;2022-10-10T02:11:28;97876.00;;;12.27;62.99
45247;BME280;31529;51.158;7.354;2022-10-10T02:12:04;97876.00;;;12.27;63.32
45247;BME280;31529;51.158;7.354;2022-10-10T02:12:36;97874.44;;;12.26;63.57
45247;BME280;31529;51.158;7.354;2022-10-10T02:13:09;97878.97;;;12.25;63.38
45247;BME280;31529;51.158;7.354;2022-10-10T02:13:43;97879.78;;;12.26;63.63
45247;BME280;31529;51.158;7.354;2022-10-10T02:14:21;97871.75;;;12.26;63.93
45247;BME280;31529;51.158;7.354;2022-10-10T02:14:58;97880.09;;;12.24;63.40
45247;BME280;31529;51.158;7.354;2022-10-10T02:15:42;97877.41;;;12.24;64.04
45247;BME280;31529;51.158;7.354;2022-10-10T02:16:19;97871.28;;;12.24;63.61
45247;BME280;31529;51.158;7.354;2022-10-10T02:16:55;97875.50;;;12.25;63.89
45247;BME280;31529;51.158;7.354;2022-10-10T02:17:30;97874.72;;;12.24;63.72
45247;BME280;31529;51.158;7.354;2022-10-10T02:18:05;97876.63;;;12.24;63.69
45247;BME280;31529;51.158;7.354;2022-10-10T02:18:39;97872.34;;;12.23;63.87
45247;BME280;31529;51.158;7.354;2022-10-10T02:19:16;97878.81;;;12.22;63.93
45247;BME280;31529;51.158;7.354;2022-10-10T02:19:52;97871.84;;;12.21;63.75
45247;BME280;31529;51.158;7.354;2022-10-10T02:20:26;97871.84;;;12.21;64.04
45247;BME280;31529;51.158;7.354;2022-10-10T02:21:00;97874.53;;;12.21;63.90
45247;BME280;31529;51.158;7.354;2022-10-10T02:21:33;97870.25;;;12.20;63.91
45247;BME280;31529;51.158;7.354;2022-10-10T02:22:04;97868.69;;;12.19;64.13
45247;BME280;31529;51.158;7.354;2022-10-10T02:22:37;97872.13;;;12.19;63.95
45247;BME280;31529;51.158;7.354;2022-10-10T02:23:11;97872.44;;;12.18;64.90
45247;BME280;31529;51.158;7.354;2022-10-10T02:23:46;97869.75;;;12.18;64.34
45247;BME280;31529;51.158;7.354;2022-10-10T02:24:21;97876.69;;;12.19;65.09
45247;BME280;31529;51.158;7.354;2022-10-10T02:24:54;97772.59;;;11.48;64.40
45247;BME280;31529;51.158;7.354;2022-10-10T02:25:29;97874.31;;;12.17;64.57
45247;BME280;31529;51.158;7.354;2022-10-10T02:26:06;97877.78;;;12.18;64.64
45247;BME280;31529;51.158;7.354;2022-10-10T02:26:40;97873.25;;;12.18;64.70
45247;BME280;31529;51.158;7.354;2022-10-10T02:28:44;97874.03;;;12.19;65.12
45247;BME280;31529;51.158;7.354;2022-10-10T02:29:26;97871.34;;;12.19;65.18
45247;BME280;31529;51.158;7.354;2022-10-10T02:30:03;97872.44;;;12.18;65.04
45247;BME280;31529;51.158;7.354;2022-10-10T02:30:35;97877.00;;;12.17;65.29
45247;BME280;31529;51.158;7.354;2022-10-10T02:31:10;97880.44;;;12.18;65.00
45247;BME280;31529;51.158;7.354;2022-10-10T02:31:49;97870.84;;;12.17;64.51
45247;BME280;31529;51.158;7.354;2022-10-10T02:32:40;97875.09;;;12.18;64.82
45247;BME280;31529;51.158;7.354;2022-10-10T02:33:16;97875.09;;;12.18;64.61
45247;BME280;31529;51.158;7.354;2022-10-10T02:33:58;97873.53;;;12.17;64.78
45247;BME280;31529;51.158;7.354;2022-10-10T02:34:39;97876.22;;;12.17;64.96
45247;BME280;31529;51.158;7.354;2022-10-10T02:35:15;97871.94;;;12.16;64.69
45247;BME280;31529;51.158;7.354;2022-10-10T02:35:49;97871.94;;;12.16;64.48
45247;BME280;31529;51.158;7.354;2022-10-10T02:36:23;97866.59;;;12.16;64.39
45247;BME280;31529;51.158;7.354;2022-10-10T02:36:57;97867.69;;;12.15;64.60
45247;BME280;31529;51.158;7.354;2022-10-10T02:37:31;97870.38;;;12.15;65.33
45247;BME280;31529;51.158;7.354;2022-10-10T02:38:05;97866.09;;;12.14;64.92
45247;BME280;31529;51.158;7.354;2022-10-10T02:38:40;97867.69;;;12.15;65.04
45247;BME280;31529;51.158;7.354;2022-10-10T02:39:12;97859.66;;;12.15;65.33
45247;BME280;31529;51.158;7.354;2022-10-10T02:39:46;97865.00;;;12.15;64.94
45247;BME280;31529;51.158;7.354;2022-10-10T02:40:21;97868.75;;;12.14;65.25
45247;BME280;31529;51.158;7.354;2022-10-10T02:40:56;97870.38;;;12.15;65.32
45247;BME280;31529;51.158;7.354;2022-10-10T02:41:33;97866.91;;;12.14;65.15
45247;BME280;31529;51.158;7.354;2022-10-10T02:42:06;97869.56;;;12.14;65.29
45247;BME280;31529;51.158;7.354;2022-10-10T02:42:40;97869.56;;;12.14;64.78
45247;BME280;31529;51.158;7.354;2022-10-10T02:43:11;97868.75;;;12.14;64.67
45247;BME280;31529;51.158;7.354;2022-10-10T02:43:44;97870.38;;;12.15;65.18
45247;BME280;31529;51.158;7.354;2022-10-10T02:44:17;97873.81;;;12.15;65.20
45247;BME280;31529;51.158;7.354;2022-10-10T02:44:49;97866.09;;;12.14;64.93
45247;BME280;31529;51.158;7.354;2022-10-10T02:45:21;97862.63;;;12.13;64.85
45247;BME280;31529;51.158;7.354;2022-10-10T02:45:53;97791.03;;;11.63;65.47
45247;BME280;31529;51.158;7.354;2022-10-10T02:46:24;97870.16;;;12.11;65.18
45247;BME280;31529;51.158;7.354;2022-10-10T02:46:55;97875.22;;;12.13;64.79
45247;BME280;31529;51.158;7.354;2022-10-10T02:47:26;97864.81;;;12.11;65.02
45247;BME280;31529;51.158;7.354;2022-10-10T02:47:58;97869.38;;;12.10;65.40
45247;BME280;31529;51.158;7.354;2022-10-10T02:48:30;97863.22;;;12.10;65.15
45247;BME280;31529;51.158;7.354;2022-10-10T02:49:01;97867.78;;;12.09;65.10
45247;BME280;31529;51.158;7.354;2022-10-10T02:49:33;97861.94;;;12.07;65.13
45247;BME280;31529;51.158;7.354;2022-10-10T02:50:05;97873.69;;;12.06;64.87
45247;BME280;31529;51.158;7.354;2022-10-10T02:50:36;97864.88;;;12.06;65.45
45247;BME280;31529;51.158;7.354;2022-10-10T02:51:08;97865.69;;;12.06;65.37
45247;BME280;31529;51.158;7.354;2022-10-10T02:51:39;97863.31;;;12.05;65.46
45247;BME280;31529;51.158;7.354;2022-10-10T02:52:11;97855.31;;;12.05;65.78
45247;BME280;31529;51.158;7.354;2022-10-10T02:52:44;97864.41;;;12.04;65.66
45247;BME280;31529;51.158;7.354;2022-10-10T02:53:15;97862.50;;;12.04;65.52
45247;BME280;31529;51.158;7.354;2022-10-10T02:53:46;97865.50;;;12.03;65.70
45247;BME280;31529;51.158;7.354;2022-10-10T02:54:17;97857.75;;;12.01;65.71
45247;BME280;31529;51.158;7.354;2022-10-10T02:54:49;97859.63;;;12.01;66.00
45247;BME280;31529;51.158;7.354;2022-10-10T02:55:20;97858.06;;;12.00;66.01
45247;BME280;31529;51.158;7.354;2022-10-10T02:55:51;97859.94;;;11.99;65.99
45247;BME280;31529;51.158;7.354;2022-10-10T02:56:22;97854.09;;;11.97;65.54
45247;BME280;31529;51.158;7.354;2022-10-10T02:56:53;97854.38;;;11.96;65.59
45247;BME280;31529;51.158;7.354;2022-10-10T02:57:24;97858.44;;;11.93;66.17
45247;BME280;31529;51.158;7.354;2022-10-10T02:57:55;97857.63;;;11.93;66.10
45247;BME280;31529;51.158;7.354;2022-10-10T02:58:26;97862.19;;;11.92;66.11
45247;BME280;31529;51.158;7.354;2022-10-10T02:58:57;97855.25;;;11.91;66.50
45247;BME280;31529;51.158;7.354;2022-10-10T02:59:28;97858.25;;;11.89;66.08
45247;BME280;31529;51.158;7.354;2022-10-10T02:59:59;97857.41;;;11.89;66.49
45247;BME280;31529;51.158;7.354;2022-10-10T03:00:31;97859.56;;;11.87;66.30
45247;BME280;31529;51.158;7.354;2022-10-10T03:01:02;97855.34;;;11.86;66.60
45247;BME280;31529;51.158;7.354;2022-10-10T03:01:33;97855.63;;;11.84;66.40
45247;BME280;31529;51.158;7.354;2022-10-10T03:02:04;97852.44;;;11.82;66.60
45247;BME280;31529;51.158;7.354;2022-10-10T03:02:36;97853.53;;;11.81;66.16
45247;BME280;31529;51.158;7.354;2022-10-10T03:03:07;97852.75;;;11.81;66.51
45247;BME280;31529;51.158;7.354;2022-10-10T03:03:38;97854.63;;;11.80;66.33
45247;BME280;31529;51.158;7.354;2022-10-10T03:04:09;97854.91;;;11.79;66.84
45247;BME280;31529;51.158;7.354;2022-10-10T03:04:40;97847.97;;;11.78;66.30
45247;BME280;31529;51.158;7.354;2022-10-10T03:05:12;97857.88;;;11.77;66.70
45247;BME280;31529;51.158;7.354;2022-10-10T03:05:43;97850.16;;;11.76;66.81
45247;BME280;31529;51.158;7.354;2022-10-10T03:06:14;97852.81;;;11.76;66.99
45247;BME280;31529;51.158;7.354;2022-10-10T03:06:45;97851.25;;;11.75;66.88
45247;BME280;31529;51.158;7.354;2022-10-10T03:07:16;97854.22;;;11.73;66.81
45247;BME280;31529;51.158;7.354;2022-10-10T03:07:47;97859.56;;;11.73;67.12
45247;BME280;31529;51.158;7.354;2022-10-10T03:08:19;97856.09;;;11.72;67.62
45247;BME280;31529;51.158;7.354;2022-10-10T03:08:50;97848.06;;;11.72;67.65
45247;BME280;31529;51.158;7.354;2022-10-10T03:09:21;97851.81;;;11.71;67.53
45247;BME280;31529;51.158;7.354;2022-10-10T03:09:52;97843.81;;;11.71;67.46
45247;BME280;31529;51.158;7.354;2022-10-10T03:10:23;97851.03;;;11.71;68.07
45247;BME280;31529;51.158;7.354;2022-10-10T03:10:55;97845.69;;;11.71;68.06
45247;BME280;31529;51.158;7.354;2022-10-10T03:11:28;97852.91;;;11.70;67.36
45247;BME280;31529;51.158;7.354;2022-10-10T03:11:59;97844.09;;;11.70;68.30
45247;BME280;31529;51.158;7.354;2022-10-10T03:12:30;97844.91;;;11.70;68.16
45247;BME280;31529;51.158;7.354;2022-10-10T03:13:01;97843.31;;;11.69;68.61
45247;BME280;31529;51.158;7.354;2022-10-10T03:13:32;97850.25;;;11.70;68.33
45247;BME280;31529;51.158;7.354;2022-10-10T03:14:03;97843.00;;;11.71;68.19
45247;BME280;31529;51.158;7.354;2022-10-10T03:14:34;97844.91;;;11.70;68.37
45247;BME280;31529;51.158;7.354;2022-10-10T03:15:05;97844.91;;;11.70;68.77
45247;BME280;31529;51.158;7.354;2022-10-10T03:15:37;97847.56;;;11.70;68.64
45247;BME280;31529;51.158;7.354;2022-10-10T03:16:08;97840.63;;;11.69;68.35
45247;BME280;31529;51.158;7.354;2022-10-10T03:16:39;97847.03;;;11.68;68.15
45247;BME280;31529;51.158;7.354;2022-10-10T03:17:10;97842.81;;;11.67;68.79
45247;BME280;31529;51.158;7.354;2022-10-10T03:17:41;97845.47;;;11.67;68.90
45247;BME280;31529;51.158;7.354;2022-10-10T03:18:12;97844.69;;;11.67;68.77
45247;BME280;31529;51.158;7.354;2022-10-10T03:18:43;97837.75;;;11.66;68.71
45247;BME280;31529;51.158;7.354;2022-10-10T03:19:14;97843.09;;;11.66;68.86
45247;BME280;31529;51.158;7.354;2022-10-10T03:19:45;97841.53;;;11.65;68.33
45247;BME280;31529;51.158;7.354;2022-10-10T03:20:16;97839.91;;;11.64;68.81
45247;BME280;31529;51.158;7.354;2022-10-10T03:20:51;97839.13;;;11.63;69.14
45247;BME280;31529;51.158;7.354;2022-10-10T03:21:23;97842.88;;;11.62;68.57
45247;BME280;31529;51.158;7.354;2022-10-10T03:21:54;97835.97;;;11.61;68.37
45247;BME280;31529;51.158;7.354;2022-10-10T03:22:25;97843.97;;;11.61;68.63
45247;BME280;31529;51.158;7.354;2022-10-10T03:22:56;97834.38;;;11.60;69.30
45247;BME280;31529;51.158;7.354;2022-10-10T03:23:27;97844.56;;;11.58;68.65